Time;durP1;ratioP1;P1;durP2;ratioP2;P2;SDS_P1;SDS_P2;PMS_P1;PMS_P2;Temp;Humidity;BMP_temperature;BMP_pressure;BME280_temperature;BME280_humidity;BME280_pressure;Samples;Min_cycle;Max_cycle;Signal;HPM_P1;HPM_P2
2023/12/10 00:01:01;;;;;;;37.70;6.47;;;9.60;99.90;;;;;;5067105;28;20446;-77
2023/12/10 00:03:47;;;;;;;20.37;5.17;;;9.60;99.90;;;;;;5079583;28;20831;-77
2023/12/10 00:06:32;;;;;;;27.80;4.03;;;9.60;99.90;;;;;;5073985;28;20536;-77
2023/12/10 00:09:18;;;;;;;31.07;4.33;;;9.60;99.90;;;;;;5071989;28;20574;-77
2023/12/10 00:12:04;;;;;;;20.13;4.23;;;9.60;99.90;;;;;;5069980;28;20476;-77
2023/12/10 00:14:54;;;;;;;26.67;4.13;;;9.60;99.90;;;;;;5084078;28;20566;-77
2023/12/10 00:17:41;;;;;;;19.40;4.07;;;9.60;99.90;;;;;;5072452;28;20486;-77
2023/12/10 00:20:26;;;;;;;18.17;3.47;;;9.60;99.90;;;;;;5072831;28;21005;-77
2023/12/10 00:23:12;;;;;;;26.87;6.27;;;9.60;99.90;;;;;;5077715;28;20456;-77
2023/12/10 00:25:58;;;;;;;18.60;4.37;;;9.70;99.90;;;;;;5080926;28;20538;-77
2023/12/10 00:28:43;;;;;;;21.53;5.17;;;9.70;99.90;;;;;;5083538;28;20596;-77
2023/12/10 00:31:29;;;;;;;26.10;4.30;;;9.70;99.90;;;;;;5072861;28;20492;-77
2023/12/10 00:34:16;;;;;;;18.20;4.30;;;9.60;99.90;;;;;;5077595;28;20594;-77
2023/12/10 00:37:02;;;;;;;19.10;5.53;;;9.60;99.90;;;;;;5077567;28;20463;-76
2023/12/10 00:39:47;;;;;;;30.83;5.47;;;9.50;99.90;;;;;;5068661;28;20448;-77
2023/12/10 00:42:33;;;;;;;32.03;4.60;;;9.60;99.90;;;;;;5068650;28;20447;-76
2023/12/10 00:45:19;;;;;;;30.33;4.67;;;9.50;99.90;;;;;;5069475;28;20422;-77
2023/12/10 00:48:04;;;;;;;24.63;6.03;;;9.50;99.90;;;;;;5069641;28;21006;-76
2023/12/10 00:50:52;;;;;;;14.47;5.40;;;9.50;99.90;;;;;;5075661;28;20459;-76
2023/12/10 00:53:37;;;;;;;43.80;7.17;;;9.50;99.90;;;;;;5071246;28;20584;-77
2023/12/10 00:56:23;;;;;;;25.20;5.63;;;9.50;99.90;;;;;;5072209;28;20481;-76
2023/12/10 00:59:09;;;;;;;28.03;4.70;;;9.60;99.90;;;;;;5070611;28;20451;-77
2023/12/10 01:01:54;;;;;;;27.73;4.67;;;9.50;99.90;;;;;;5070589;28;20579;-77
2023/12/10 01:04:41;;;;;;;23.63;5.20;;;9.50;99.90;;;;;;5078043;28;20425;-77
2023/12/10 01:07:28;;;;;;;25.97;6.67;;;9.60;99.90;;;;;;5067142;28;20550;-77
2023/12/10 01:10:13;;;;;;;26.53;5.00;;;9.60;99.90;;;;;;5066528;28;20417;-77
2023/12/10 01:12:59;;;;;;;33.37;5.33;;;9.60;99.90;;;;;;5064179;28;20585;-76
2023/12/10 01:15:44;;;;;;;22.50;5.13;;;9.70;99.90;;;;;;5070351;28;20447;-76
2023/12/10 01:18:32;;;;;;;29.30;6.40;;;9.70;99.90;;;;;;5075381;28;20525;-77
2023/12/10 01:21:18;;;;;;;27.27;5.23;;;9.70;99.90;;;;;;5077224;28;20438;-77
2023/12/10 01:24:07;;;;;;;35.63;5.57;;;9.70;99.90;;;;;;5066011;28;20457;-77
2023/12/10 01:26:53;;;;;;;27.60;5.07;;;9.60;99.90;;;;;;5067513;28;20472;-76
2023/12/10 01:29:38;;;;;;;29.33;5.85;;;9.70;99.90;;;;;;5069443;28;20567;-77
2023/12/10 01:32:24;;;;;;;28.97;7.57;;;9.80;99.90;;;;;;5072051;28;20730;-77
2023/12/10 01:35:10;;;;;;;30.63;6.43;;;9.80;99.90;;;;;;5067644;28;20472;-76
2023/12/10 01:37:55;;;;;;;29.03;4.90;;;9.70;99.90;;;;;;5065338;28;20513;-76
2023/12/10 01:40:42;;;;;;;29.90;5.10;;;9.70;99.90;;;;;;5069648;28;20826;-76
2023/12/10 01:43:28;;;;;;;23.50;4.90;;;9.70;99.90;;;;;;5079354;28;20468;-76
2023/12/10 01:46:14;;;;;;;26.60;5.10;;;9.70;99.90;;;;;;5068370;28;20509;-77
2023/12/10 01:49:00;;;;;;;31.73;5.17;;;9.70;99.90;;;;;;5066865;28;20809;-77
2023/12/10 01:51:47;;;;;;;40.20;6.70;;;9.70;99.90;;;;;;5065537;28;20922;-77
2023/12/10 01:54:32;;;;;;;35.70;6.03;;;9.80;99.90;;;;;;5069804;28;20449;-77
2023/12/10 01:57:20;;;;;;;29.00;6.13;;;9.80;99.90;;;;;;5068024;28;20471;-77
2023/12/10 02:00:07;;;;;;;35.53;5.97;;;9.80;99.90;;;;;;5063195;28;20478;-77
2023/12/10 02:02:53;;;;;;;24.23;5.43;;;9.70;99.90;;;;;;5062157;28;20457;-76
2023/12/10 02:05:39;;;;;;;35.03;4.90;;;9.80;99.90;;;;;;5072931;28;20447;-77
2023/12/10 02:08:24;;;;;;;43.37;5.83;;;9.80;99.90;;;;;;5066371;28;20444;-77
2023/12/10 02:11:10;;;;;;;44.73;6.73;;;9.70;99.90;;;;;;5065077;28;20528;-77
2023/12/10 02:13:58;;;;;;;36.20;6.40;;;9.80;99.90;;;;;;5070458;28;20456;-77
2023/12/10 02:16:44;;;;;;;28.53;6.30;;;9.80;99.90;;;;;;5067334;28;20893;-77
2023/12/10 02:19:29;;;;;;;27.50;6.47;;;9.70;99.90;;;;;;5072626;28;20465;-77
2023/12/10 02:22:18;;;;;;;37.87;6.77;;;9.80;99.90;;;;;;5082797;28;20442;-76
2023/12/10 02:25:08;;;;;;;33.33;5.30;;;9.80;99.90;;;;;;5071541;28;20465;-77
2023/12/10 02:27:55;;;;;;;25.37;5.33;;;9.80;99.90;;;;;;5067475;28;20826;-77
2023/12/10 02:30:41;;;;;;;29.33;5.77;;;9.80;99.90;;;;;;5068029;28;20443;-75
2023/12/10 02:33:26;;;;;;;25.03;4.97;;;9.80;99.90;;;;;;5060687;28;20481;-76
2023/12/10 02:36:13;;;;;;;41.03;8.33;;;9.90;99.90;;;;;;5061568;28;20640;-76
2023/12/10 02:38:58;;;;;;;44.53;6.40;;;9.90;99.90;;;;;;5065543;28;20445;-77
2023/12/10 02:41:44;;;;;;;22.10;4.87;;;9.90;99.90;;;;;;5067849;28;20447;-77
2023/12/10 02:44:31;;;;;;;12.93;3.40;;;9.90;99.90;;;;;;5063700;28;20446;-77
2023/12/10 02:47:16;;;;;;;24.67;3.70;;;9.80;99.90;;;;;;5060954;28;20516;-77
2023/12/10 02:50:02;;;;;;;16.53;3.40;;;9.80;99.90;;;;;;5065694;28;20534;-77
2023/12/10 02:52:48;;;;;;;13.50;3.03;;;9.80;99.90;;;;;;5067581;28;20549;-77
2023/12/10 02:55:33;;;;;;;12.43;2.30;;;9.70;99.90;;;;;;5070832;28;20568;-77
2023/12/10 02:58:19;;;;;;;13.23;3.30;;;9.60;99.90;;;;;;5073737;28;20440;-77
2023/12/10 03:01:06;;;;;;;12.30;3.70;;;9.50;99.90;;;;;;5070624;28;20447;-76
2023/12/10 03:03:52;;;;;;;11.57;2.50;;;9.50;99.90;;;;;;5075811;28;20508;-77
2023/12/10 03:06:38;;;;;;;7.50;1.90;;;9.40;99.90;;;;;;5065706;28;20459;-77
2023/12/10 03:09:23;;;;;;;13.93;2.70;;;9.40;99.90;;;;;;5067766;28;20522;-76
2023/12/10 03:12:09;;;;;;;9.25;2.20;;;9.40;99.90;;;;;;5067904;28;20470;-76
2023/12/10 03:14:55;;;;;;;9.80;2.23;;;9.30;99.90;;;;;;5063712;28;20293;-77
2023/12/10 03:17:42;;;;;;;8.67;2.50;;;9.30;99.90;;;;;;5066267;28;20594;-77
2023/12/10 03:20:27;;;;;;;16.30;3.33;;;9.20;99.90;;;;;;5069166;28;20448;-76
2023/12/10 03:23:13;;;;;;;14.93;3.67;;;9.10;99.90;;;;;;5071036;28;20437;-77
2023/12/10 03:25:58;;;;;;;11.63;3.07;;;9.00;99.90;;;;;;5068135;28;20557;-77
2023/12/10 03:28:44;;;;;;;8.63;2.50;;;8.90;99.90;;;;;;5069571;28;20543;-77
2023/12/10 03:31:30;;;;;;;10.90;2.50;;;8.90;99.90;;;;;;5068945;28;20445;-77
2023/12/10 03:34:17;;;;;;;12.83;2.60;;;8.80;99.90;;;;;;5066284;28;20534;-76
2023/12/10 03:37:03;;;;;;;11.17;2.43;;;8.90;99.90;;;;;;5073623;28;20545;-76
2023/12/10 03:39:48;;;;;;;12.73;3.33;;;8.90;99.90;;;;;;5068108;28;20460;-77
2023/12/10 03:42:34;;;;;;;16.83;2.97;;;8.90;99.90;;;;;;5076448;28;20456;-76
2023/12/10 03:45:20;;;;;;;11.80;4.30;;;8.90;99.90;;;;;;5076453;28;20440;-77
2023/12/10 03:48:06;;;;;;;14.80;3.13;;;8.90;99.90;;;;;;5071388;28;20494;-77
2023/12/10 03:50:53;;;;;;;17.33;2.93;;;8.90;99.90;;;;;;5069293;28;20447;-76
2023/12/10 03:53:39;;;;;;;16.95;2.97;;;8.90;99.90;;;;;;5065907;28;21003;-77
2023/12/10 03:56:24;;;;;;;10.88;2.95;;;8.80;99.90;;;;;;5069495;28;20366;-77
2023/12/10 03:59:10;;;;;;;12.80;2.50;;;8.80;99.90;;;;;;5069836;28;20205;-77
2023/12/10 04:01:56;;;;;;;13.90;3.67;;;8.90;99.90;;;;;;5067248;28;20445;-77
2023/12/10 04:04:41;;;;;;;12.20;2.47;;;8.90;99.90;;;;;;5081885;28;21038;-77
2023/12/10 04:07:29;;;;;;;14.60;2.83;;;8.80;99.90;;;;;;5080611;28;20453;-77
2023/12/10 04:10:15;;;;;;;13.00;3.20;;;8.90;99.90;;;;;;5080071;28;20522;-77
2023/12/10 04:13:00;;;;;;;15.40;2.53;;;8.90;99.90;;;;;;5071810;28;20476;-76
2023/12/10 04:15:46;;;;;;;18.80;3.80;;;8.90;99.90;;;;;;5074959;28;20490;-77
2023/12/10 04:18:32;;;;;;;15.93;3.60;;;9.00;99.90;;;;;;5070752;28;20859;-77
2023/12/10 04:21:19;;;;;;;4.77;1.80;;;8.90;99.90;;;;;;5075366;28;20446;-77
2023/12/10 04:24:07;;;;;;;11.53;2.20;;;8.90;99.90;;;;;;5076050;28;20814;-77
2023/12/10 04:26:53;;;;;;;16.90;3.93;;;8.90;99.90;;;;;;5074580;28;21058;-77
2023/12/10 04:29:38;;;;;;;17.30;2.57;;;8.90;99.90;;;;;;5074856;28;20449;-77
2023/12/10 04:32:24;;;;;;;11.23;2.90;;;8.90;99.90;;;;;;5073374;28;20530;-77
2023/12/10 04:35:10;;;;;;;10.40;2.60;;;8.90;99.90;;;;;;5073407;28;20951;-77
2023/12/10 04:37:56;;;;;;;14.93;3.03;;;8.90;99.90;;;;;;5069620;28;21000;-77
2023/12/10 04:40:43;;;;;;;11.70;2.60;;;8.90;99.90;;;;;;5076586;28;20783;-75
2023/12/10 04:43:29;;;;;;;13.03;3.00;;;8.90;99.90;;;;;;5073689;28;20823;-77
2023/12/10 04:46:14;;;;;;;18.63;3.40;;;8.90;99.90;;;;;;5078598;28;20553;-77
2023/12/10 04:49:00;;;;;;;19.23;3.20;;;8.80;99.90;;;;;;5076488;28;20938;-77
2023/12/10 04:51:46;;;;;;;26.20;4.20;;;8.80;99.90;;;;;;5074037;28;20452;-76
2023/12/10 04:54:31;;;;;;;17.73;3.93;;;8.80;99.90;;;;;;5081121;28;20472;-77
2023/12/10 04:57:18;;;;;;;19.07;3.60;;;8.70;99.90;;;;;;5078144;28;20488;-77
2023/12/10 05:00:08;;;;;;;16.23;5.00;;;8.80;99.90;;;;;;5072908;28;20474;-76
2023/12/10 05:02:53;;;;;;;26.30;4.43;;;8.80;99.90;;;;;;5075307;28;20451;-77
2023/12/10 05:05:39;;;;;;;20.43;4.27;;;8.80;99.90;;;;;;5072900;28;20522;-77
2023/12/10 05:08:25;;;;;;;20.00;3.80;;;8.80;99.90;;;;;;5079032;28;20998;-77
2023/12/10 05:11:11;;;;;;;19.67;4.00;;;8.80;99.90;;;;;;5071623;28;20818;-77
2023/12/10 05:13:58;;;;;;;27.67;5.90;;;8.80;99.90;;;;;;5073977;28;20625;-77
2023/12/10 05:16:44;;;;;;;21.35;3.90;;;8.90;99.90;;;;;;5078153;28;20545;-77
2023/12/10 05:19:29;;;;;;;29.17;5.70;;;8.90;99.90;;;;;;5068760;28;20565;-77
2023/12/10 05:22:15;;;;;;;29.23;4.20;;;8.90;99.90;;;;;;5071092;28;20453;-76
2023/12/10 05:25:03;;;;;;;20.27;4.60;;;8.90;99.90;;;;;;5071639;28;20902;-76
2023/12/10 05:27:49;;;;;;;26.33;5.67;;;9.00;99.90;;;;;;5074955;28;20842;-77
2023/12/10 05:30:36;;;;;;;23.53;4.10;;;9.10;99.90;;;;;;5072057;28;20438;-77
2023/12/10 05:33:21;;;;;;;29.40;4.73;;;9.10;99.90;;;;;;5079762;28;20615;-75
2023/12/10 05:36:08;;;;;;;30.37;3.97;;;9.20;99.90;;;;;;5063574;28;20484;-76
2023/12/10 05:38:54;;;;;;;28.37;4.90;;;9.30;99.90;;;;;;5076408;28;20818;-76
2023/12/10 05:41:40;;;;;;;19.27;3.53;;;9.30;99.90;;;;;;5076357;28;20907;-76
2023/12/10 05:44:26;;;;;;;25.63;4.80;;;9.30;99.90;;;;;;5078663;28;20452;-76
2023/12/10 05:47:13;;;;;;;24.90;4.30;;;9.30;99.90;;;;;;5082451;28;20474;-77
2023/12/10 05:49:58;;;;;;;20.47;4.30;;;9.30;99.90;;;;;;5061236;28;20974;-77
2023/12/10 05:52:44;;;;;;;23.13;3.97;;;9.30;99.90;;;;;;5072271;28;20586;-77
2023/12/10 05:55:30;;;;;;;18.40;3.88;;;9.30;99.90;;;;;;5077675;28;20449;-76
2023/12/10 05:58:16;;;;;;;21.67;4.33;;;9.30;99.90;;;;;;5076937;28;20223;-77
2023/12/10 06:01:01;;;;;;;12.25;3.80;;;9.40;99.90;;;;;;5077995;28;20509;-77
2023/12/10 06:03:48;;;;;;;21.63;3.87;;;9.40;99.90;;;;;;5073952;28;20349;-77
2023/12/10 06:06:34;;;;;;;23.93;3.87;;;9.40;99.90;;;;;;5071861;28;20485;-76
2023/12/10 06:09:19;;;;;;;25.47;4.00;;;9.40;99.90;;;;;;5076322;28;20451;-76
2023/12/10 06:12:06;;;;;;;19.63;4.10;;;9.40;99.90;;;;;;5072978;28;20967;-77
2023/12/10 06:14:51;;;;;;;21.20;4.63;;;9.40;99.90;;;;;;5056902;28;20536;-76
2023/12/10 06:17:37;;;;;;;21.70;4.27;;;9.40;99.90;;;;;;5059785;28;20471;-77
2023/12/10 06:20:25;;;;;;;23.42;4.07;;;9.40;99.90;;;;;;5073657;28;21025;-77
2023/12/10 06:23:10;;;;;;;12.37;3.77;;;9.40;99.90;;;;;;5079153;28;20214;-76
2023/12/10 06:25:56;;;;;;;22.17;4.80;;;9.50;99.90;;;;;;5081412;28;20448;-76
2023/12/10 06:28:42;;;;;;;22.13;4.00;;;9.40;99.90;;;;;;5067555;28;20443;-77
2023/12/10 06:31:28;;;;;;;22.13;4.70;;;9.40;99.90;;;;;;5074478;28;20456;-76
2023/12/10 06:34:13;;;;;;;26.50;6.00;;;9.40;99.90;;;;;;5075346;28;20470;-77
2023/12/10 06:37:00;;;;;;;13.97;3.73;;;9.40;99.90;;;;;;5081464;28;20485;-77
2023/12/10 06:39:46;;;;;;;18.30;3.87;;;9.50;99.90;;;;;;5076200;28;20490;-77
2023/12/10 06:42:32;;;;;;;15.07;3.80;;;9.40;99.90;;;;;;5074229;28;20492;-77
2023/12/10 06:45:17;;;;;;;17.97;3.93;;;9.40;99.90;;;;;;5071362;28;20816;-77
2023/12/10 06:48:03;;;;;;;21.67;3.80;;;9.50;99.90;;;;;;5083135;28;21651;-77
2023/12/10 06:50:49;;;;;;;28.80;3.90;;;9.50;99.90;;;;;;5077438;28;20583;-77
2023/12/10 06:53:36;;;;;;;17.57;3.80;;;9.60;99.90;;;;;;5080218;28;20472;-77
2023/12/10 06:56:22;;;;;;;19.48;3.88;;;9.60;99.90;;;;;;5070977;28;20853;-77
2023/12/10 06:59:07;;;;;;;17.55;4.05;;;9.60;99.90;;;;;;5083194;28;20204;-76
2023/12/10 07:01:53;;;;;;;23.90;3.60;;;9.60;99.90;;;;;;5077781;28;20572;-76
2023/12/10 07:04:39;;;;;;;28.83;3.40;;;9.70;99.90;;;;;;5077027;28;20433;-77
2023/12/10 07:07:25;;;;;;;10.53;2.93;;;9.70;99.90;;;;;;5085429;28;20468;-77
2023/12/10 07:10:12;;;;;;;17.50;3.50;;;9.60;99.90;;;;;;5079749;28;20554;-76
2023/12/10 07:12:59;;;;;;;19.97;4.60;;;9.60;99.90;;;;;;5083597;28;20560;-77
2023/12/10 07:15:45;;;;;;;19.63;4.47;;;9.60;99.90;;;;;;5083943;28;20484;-77
2023/12/10 07:18:31;;;;;;;15.67;3.90;;;9.60;99.90;;;;;;5086233;28;20970;-76
2023/12/10 07:21:17;;;;;;;17.33;3.30;;;9.60;99.90;;;;;;5078819;28;20762;-76
2023/12/10 07:24:03;;;;;;;19.13;4.77;;;9.60;99.90;;;;;;5076573;28;20956;-77
2023/12/10 07:26:50;;;;;;;18.50;4.27;;;9.60;99.90;;;;;;5083199;28;20545;-77
2023/12/10 07:29:35;;;;;;;19.47;3.40;;;9.60;99.90;;;;;;5082505;28;20816;-75
2023/12/10 07:32:21;;;;;;;23.63;3.50;;;9.60;99.90;;;;;;5088463;28;20429;-77
2023/12/10 07:35:07;;;;;;;22.83;3.10;;;9.60;99.90;;;;;;5072629;28;20463;-77
2023/12/10 07:37:53;;;;;;;12.83;3.80;;;9.60;99.90;;;;;;5075297;28;20475;-77
2023/12/10 07:40:39;;;;;;;19.67;4.10;;;9.60;99.90;;;;;;5070124;28;20927;-77
2023/12/10 07:43:25;;;;;;;20.67;3.47;;;9.60;99.90;;;;;;5078139;28;20451;-77
2023/12/10 07:46:11;;;;;;;22.53;3.50;;;9.50;99.90;;;;;;5061958;28;20619;-77
2023/12/10 07:48:57;;;;;;;14.00;2.88;;;9.50;99.90;;;;;;5066769;28;20574;-77
2023/12/10 07:51:42;;;;;;;20.80;3.90;;;9.60;99.90;;;;;;5075619;28;20268;-77
2023/12/10 07:54:28;;;;;;;23.83;3.07;;;9.60;99.90;;;;;;5073426;28;20838;-77
2023/12/10 07:57:14;;;;;;;16.20;3.97;;;9.60;99.90;;;;;;5079502;28;20957;-76
2023/12/10 08:00:01;;;;;;;8.20;3.00;;;9.60;99.90;;;;;;5071593;28;20443;-77
2023/12/10 08:02:47;;;;;;;16.00;3.73;;;9.60;99.90;;;;;;5083305;28;20532;-76
2023/12/10 08:05:33;;;;;;;17.57;3.40;;;9.60;99.90;;;;;;5081761;28;20442;-76
2023/12/10 08:08:19;;;;;;;18.13;3.87;;;9.60;99.90;;;;;;5081376;28;20443;-77
2023/12/10 08:11:05;;;;;;;24.27;3.20;;;9.60;99.90;;;;;;5069153;28;20441;-76
2023/12/10 08:13:51;;;;;;;25.60;3.93;;;9.60;99.90;;;;;;5079106;28;20484;-77
2023/12/10 08:16:38;;;;;;;20.67;3.27;;;9.70;99.90;;;;;;5075841;28;20545;-76
2023/12/10 08:19:23;;;;;;;21.70;5.73;;;9.60;99.90;;;;;;5080597;28;20915;-77
2023/12/10 08:22:09;;;;;;;11.97;2.93;;;9.60;99.90;;;;;;5072704;28;20447;-76
2023/12/10 08:24:55;;;;;;;17.87;3.60;;;9.60;99.90;;;;;;5068194;28;20459;-77
2023/12/10 08:27:41;;;;;;;20.30;3.83;;;9.60;99.90;;;;;;5081545;28;20475;-76
2023/12/10 08:30:26;;;;;;;30.07;5.97;;;9.60;99.90;;;;;;5078791;28;20941;-77
2023/12/10 08:33:13;;;;;;;19.43;4.00;;;9.60;99.90;;;;;;5062601;28;20446;-77
2023/12/10 08:35:59;;;;;;;25.07;4.23;;;9.60;99.90;;;;;;5076775;28;20458;-76
2023/12/10 08:38:45;;;;;;;17.63;3.83;;;9.60;99.90;;;;;;5086051;28;20573;-77
2023/12/10 08:41:31;;;;;;;14.70;4.17;;;9.60;99.90;;;;;;5086050;28;20457;-77
2023/12/10 08:44:17;;;;;;;15.13;3.40;;;9.60;99.90;;;;;;5069666;28;20963;-77
2023/12/10 08:47:02;;;;;;;17.90;4.37;;;9.60;99.90;;;;;;5073274;28;21002;-77
2023/12/10 08:49:49;;;;;;;18.17;4.30;;;9.60;99.90;;;;;;5076837;28;20815;-77
2023/12/10 08:52:35;;;;;;;27.00;4.50;;;9.60;99.90;;;;;;5076953;28;20441;-77
2023/12/10 08:55:21;;;;;;;27.47;4.10;;;9.70;99.90;;;;;;5084113;28;20485;-77
2023/12/10 08:58:06;;;;;;;18.83;4.23;;;9.60;99.90;;;;;;5067546;28;20470;-77
2023/12/10 09:00:52;;;;;;;25.35;4.20;;;9.60;99.90;;;;;;5068735;28;20448;-77
2023/12/10 09:03:38;;;;;;;21.55;3.67;;;9.60;99.90;;;;;;5074530;28;20286;-76
2023/12/10 09:06:25;;;;;;;17.70;3.90;;;9.70;99.90;;;;;;5079418;28;20276;-77
2023/12/10 09:09:10;;;;;;;15.57;4.50;;;9.70;99.90;;;;;;5067775;28;20447;-77
2023/12/10 09:11:56;;;;;;;18.73;3.43;;;9.70;99.90;;;;;;5070274;28;20447;-76
2023/12/10 09:14:42;;;;;;;24.15;4.38;;;9.70;99.90;;;;;;5075729;28;20441;-76
2023/12/10 09:17:28;;;;;;;18.03;4.60;;;9.70;99.90;;;;;;5069403;28;20875;-77
2023/12/10 09:20:13;;;;;;;29.47;3.60;;;9.70;99.90;;;;;;5063779;28;20447;-77
2023/12/10 09:23:00;;;;;;;32.13;4.07;;;9.70;99.90;;;;;;5071374;28;20927;-77
2023/12/10 09:25:46;;;;;;;20.40;3.83;;;9.70;99.90;;;;;;5078176;28;20519;-76
2023/12/10 09:28:31;;;;;;;14.27;3.90;;;9.70;99.90;;;;;;5081835;28;20564;-77
2023/12/10 09:31:17;;;;;;;22.70;3.93;;;9.70;99.90;;;;;;5068268;28;20537;-77
2023/12/10 09:34:03;;;;;;;23.70;4.63;;;9.70;99.90;;;;;;5075320;28;20490;-77
2023/12/10 09:36:49;;;;;;;27.37;3.83;;;9.70;99.90;;;;;;5074124;28;20945;-77
2023/12/10 09:39:36;;;;;;;21.80;3.80;;;9.70;99.90;;;;;;5069304;28;20441;-77
2023/12/10 09:42:22;;;;;;;23.83;3.60;;;9.70;99.90;;;;;;5065752;28;20542;-77
2023/12/10 09:45:08;;;;;;;16.90;3.63;;;9.70;99.90;;;;;;5074261;28;20428;-76
2023/12/10 09:47:54;;;;;;;20.33;3.70;;;9.70;99.90;;;;;;5079543;28;20537;-77
2023/12/10 09:50:41;;;;;;;18.07;4.23;;;9.70;99.90;;;;;;5071274;28;20457;-77
2023/12/10 09:53:28;;;;;;;16.33;3.60;;;9.70;99.90;;;;;;5072017;28;20451;-77
2023/12/10 09:56:15;;;;;;;12.37;2.73;;;9.80;99.90;;;;;;5064935;28;20479;-77
2023/12/10 09:59:00;;;;;;;25.93;5.10;;;9.90;99.90;;;;;;5074704;28;20515;-77
2023/12/10 10:01:50;;;;;;;19.63;3.40;;;10.00;99.90;;;;;;5077966;28;20450;-76
2023/12/10 10:04:35;;;;;;;13.63;4.10;;;10.00;99.90;;;;;;5057038;28;20581;-77
2023/12/10 10:07:21;;;;;;;12.67;3.60;;;10.10;99.90;;;;;;5071535;28;20463;-77
2023/12/10 10:10:10;;;;;;;18.70;3.07;;;10.20;99.90;;;;;;5071952;28;20583;-76
2023/12/10 10:12:59;;;;;;;18.77;4.00;;;10.20;99.90;;;;;;5080389;28;20455;-77
2023/12/10 10:15:44;;;;;;;22.20;3.80;;;10.20;99.90;;;;;;5064282;28;20849;-77
2023/12/10 10:18:31;;;;;;;19.17;3.97;;;10.30;99.90;;;;;;5069196;28;20439;-76
2023/12/10 10:21:16;;;;;;;14.97;3.50;;;10.30;99.90;;;;;;5073413;28;20447;-77
2023/12/10 10:24:03;;;;;;;18.37;3.60;;;10.30;99.90;;;;;;5081059;28;20586;-77
2023/12/10 10:26:48;;;;;;;17.67;3.50;;;10.30;99.90;;;;;;5073869;28;20547;-77
2023/12/10 10:29:36;;;;;;;24.60;4.33;;;10.30;99.90;;;;;;5071491;28;20445;-77
2023/12/10 10:32:22;;;;;;;15.70;2.63;;;10.40;99.90;;;;;;5071961;28;20456;-77
2023/12/10 10:35:08;;;;;;;23.60;3.83;;;10.40;99.90;;;;;;5088639;28;20478;-75
2023/12/10 10:37:55;;;;;;;15.70;3.47;;;10.40;99.90;;;;;;5083588;28;20494;-76
2023/12/10 10:40:40;;;;;;;14.33;3.17;;;10.50;99.90;;;;;;5078615;28;20830;-75
2023/12/10 10:43:26;;;;;;;8.60;2.70;;;10.60;99.90;;;;;;5067933;28;21096;-77
2023/12/10 10:46:12;;;;;;;23.47;4.70;;;10.70;99.90;;;;;;5070823;28;20472;-77
2023/12/10 10:49:00;;;;;;;20.10;3.13;;;10.80;99.90;;;;;;5066867;28;21084;-76
2023/12/10 10:51:46;;;;;;;13.40;3.90;;;10.70;99.90;;;;;;5075122;28;20452;-77
2023/12/10 10:54:34;;;;;;;18.23;3.60;;;10.70;99.90;;;;;;5069388;28;20473;-77
2023/12/10 10:57:29;;;;;;;16.80;3.93;;;10.80;99.90;;;;;;5065820;28;20484;-77
2023/12/10 11:00:34;;;;;;;28.20;4.77;;;10.60;99.90;;;;;;5068839;28;20555;-77
2023/12/10 11:03:22;;;;;;;14.97;2.93;;;10.60;99.90;;;;;;5073907;28;20453;-77
2023/12/10 11:06:09;;;;;;;15.53;4.17;;;10.60;99.90;;;;;;5066816;28;20465;-77
2023/12/10 11:08:57;;;;;;;15.00;3.47;;;10.60;99.90;;;;;;5066222;28;20585;-77
2023/12/10 11:11:42;;;;;;;20.67;3.57;;;10.60;99.90;;;;;;5064936;28;20427;-77
2023/12/10 11:14:33;;;;;;;15.10;3.47;;;10.60;99.90;;;;;;5068094;28;20452;-77
2023/12/10 11:17:19;;;;;;;15.90;3.93;;;10.60;99.90;;;;;;5069016;28;20468;-76
2023/12/10 11:20:27;;;;;;;12.40;3.57;;;10.60;99.90;;;;;;5068369;28;20455;-76
2023/12/10 11:23:14;;;;;;;28.93;3.50;;;10.60;99.90;;;;;;5068354;28;20443;-75
2023/12/10 11:26:00;;;;;;;24.53;3.50;;;10.60;99.90;;;;;;5065869;28;20807;-78
2023/12/10 11:28:46;;;;;;;16.73;3.17;;;10.60;99.90;;;;;;5068009;28;20450;-77
2023/12/10 11:31:31;;;;;;;12.67;3.57;;;10.60;99.90;;;;;;5079402;28;20587;-77
2023/12/10 11:34:17;;;;;;;16.17;3.50;;;10.60;99.90;;;;;;5074077;28;20440;-76
2023/12/10 11:37:04;;;;;;;20.80;4.17;;;10.70;99.90;;;;;;5082842;28;20468;-77
2023/12/10 11:39:50;;;;;;;20.93;3.43;;;10.80;99.90;;;;;;5070212;28;20528;-76
2023/12/10 11:42:35;;;;;;;17.83;3.43;;;10.90;99.90;;;;;;5082862;28;20430;-76
2023/12/10 11:45:21;;;;;;;20.10;3.90;;;10.90;99.90;;;;;;5082223;28;20518;-77
2023/12/10 11:48:07;;;;;;;18.00;3.30;;;10.90;99.90;;;;;;5085893;28;20543;-76
2023/12/10 11:50:52;;;;;;;10.40;3.47;;;10.90;99.90;;;;;;5071541;28;20453;-75
2023/12/10 11:53:40;;;;;;;18.33;3.30;;;10.90;99.90;;;;;;5068238;28;20933;-76
2023/12/10 11:56:26;;;;;;;22.90;4.53;;;10.90;99.90;;;;;;5068987;28;20480;-76
2023/12/10 11:59:11;;;;;;;15.67;3.23;;;10.90;99.90;;;;;;5068907;28;21033;-75
2023/12/10 12:01:57;;;;;;;22.50;4.50;;;10.90;99.90;;;;;;5071352;28;20445;-75
2023/12/10 12:04:43;;;;;;;12.93;2.93;;;10.90;99.90;;;;;;5065044;28;20495;-75
2023/12/10 12:07:29;;;;;;;21.80;4.10;;;10.90;99.90;;;;;;5066095;28;21475;-75
2023/12/10 12:10:17;;;;;;;15.67;3.40;;;10.80;99.90;;;;;;5075794;28;20963;-74
2023/12/10 12:13:05;;;;;;;14.53;2.60;;;10.80;99.90;;;;;;5069225;28;20983;-74
2023/12/10 12:15:52;;;;;;;24.63;5.60;;;10.80;99.90;;;;;;5062992;28;21130;-74
2023/12/10 12:18:37;;;;;;;13.93;4.70;;;10.80;99.90;;;;;;5065288;28;20452;-74
2023/12/10 12:21:23;;;;;;;12.53;4.87;;;10.80;99.90;;;;;;5063024;28;20448;-75
2023/12/10 12:24:09;;;;;;;12.47;3.60;;;10.80;99.90;;;;;;5071403;28;20805;-75
2023/12/10 12:26:56;;;;;;;15.57;3.00;;;10.80;99.90;;;;;;5065530;28;20950;-75
2023/12/10 12:29:41;;;;;;;12.40;3.17;;;10.70;99.90;;;;;;5069070;28;20604;-75
2023/12/10 12:32:27;;;;;;;15.73;2.87;;;10.70;99.90;;;;;;5068556;28;20491;-75
2023/12/10 12:35:13;;;;;;;14.50;3.40;;;10.60;99.90;;;;;;5072449;28;20472;-75
2023/12/10 12:37:59;;;;;;;12.83;3.00;;;10.60;99.90;;;;;;5070978;28;20606;-75
2023/12/10 12:40:44;;;;;;;21.37;4.33;;;10.50;99.90;;;;;;5072281;28;20457;-75
2023/12/10 12:43:32;;;;;;;11.97;3.20;;;10.50;99.90;;;;;;5066453;28;20813;-76
2023/12/10 12:46:18;;;;;;;16.03;3.70;;;10.50;99.90;;;;;;5070149;28;20471;-75
2023/12/10 12:49:03;;;;;;;11.90;3.13;;;10.40;99.90;;;;;;5060877;28;20451;-75
2023/12/10 12:51:49;;;;;;;23.10;5.20;;;10.30;99.90;;;;;;5064486;28;20514;-76
2023/12/10 12:54:35;;;;;;;15.80;3.93;;;10.30;99.90;;;;;;5063511;28;20956;-76
2023/12/10 12:57:20;;;;;;;17.07;3.47;;;10.30;99.90;;;;;;5063296;28;20492;-75
2023/12/10 13:00:11;;;;;;;17.87;4.30;;;10.10;99.90;;;;;;5066536;28;21057;-76
2023/12/10 13:02:59;;;;;;;13.23;4.00;;;10.20;99.90;;;;;;5061295;28;20626;-75
2023/12/10 13:05:44;;;;;;;20.73;3.40;;;10.10;99.90;;;;;;5063704;28;20900;-76
2023/12/10 13:08:31;;;;;;;23.63;4.20;;;10.20;99.90;;;;;;5067403;28;20431;-76
2023/12/10 13:11:17;;;;;;;28.50;3.83;;;10.10;99.90;;;;;;5060679;28;20805;-76
2023/12/10 13:14:03;;;;;;;15.57;3.60;;;10.10;99.90;;;;;;5061870;28;20788;-75
2023/12/10 13:16:50;;;;;;;15.53;5.97;;;10.10;99.90;;;;;;5069257;28;20967;-76
2023/12/10 13:19:36;;;;;;;21.77;4.87;;;10.10;99.90;;;;;;5079195;28;20913;-74
2023/12/10 13:22:21;;;;;;;18.63;4.03;;;10.10;99.90;;;;;;5074113;28;20432;-75
2023/12/10 13:25:08;;;;;;;13.77;3.57;;;10.10;99.90;;;;;;5090724;28;20440;-76
2023/12/10 13:27:53;;;;;;;20.10;4.93;;;10.10;99.90;;;;;;5089575;28;20532;-76
2023/12/10 13:30:39;;;;;;;21.73;3.80;;;10.10;99.90;;;;;;5090474;28;20546;-76
2023/12/10 13:33:26;;;;;;;26.67;4.97;;;10.10;99.90;;;;;;5088158;28;20765;-76
2023/12/10 13:36:11;;;;;;;17.67;3.93;;;10.10;99.90;;;;;;5087508;28;20618;-76
2023/12/10 13:38:57;;;;;;;12.73;3.50;;;10.10;99.90;;;;;;5078552;28;20430;-76
2023/12/10 13:41:42;;;;;;;19.50;3.97;;;10.10;99.90;;;;;;5087487;28;20959;-76
2023/12/10 13:44:28;;;;;;;21.30;4.70;;;10.00;99.90;;;;;;5089814;28;20439;-76
2023/12/10 13:47:14;;;;;;;14.53;4.10;;;10.00;99.90;;;;;;5088598;28;20440;-76
2023/12/10 13:50:02;;;;;;;25.00;6.03;;;10.00;99.90;;;;;;5090216;28;20954;-75
2023/12/10 13:52:49;;;;;;;20.90;4.00;;;10.10;99.90;;;;;;5079093;28;20428;-75
2023/12/10 13:55:36;;;;;;;19.67;4.40;;;10.00;99.90;;;;;;5076722;28;20460;-75
2023/12/10 13:58:22;;;;;;;21.07;3.60;;;10.00;99.90;;;;;;5089755;28;20767;-76
2023/12/10 14:01:08;;;;;;;26.23;5.33;;;10.00;99.90;;;;;;5089970;28;20430;-76
2023/12/10 14:03:54;;;;;;;15.97;5.60;;;10.10;99.90;;;;;;5084971;28;20410;-76
2023/12/10 14:06:41;;;;;;;27.63;4.30;;;10.10;99.90;;;;;;5085061;28;20440;-75
2023/12/10 14:09:27;;;;;;;11.00;3.70;;;10.20;99.90;;;;;;5088639;28;20429;-75
2023/12/10 14:12:13;;;;;;;29.40;5.23;;;10.20;99.90;;;;;;5081608;28;20428;-76
2023/12/10 14:14:58;;;;;;;19.57;5.83;;;10.20;99.90;;;;;;5082138;28;20459;-76
2023/12/10 14:17:44;;;;;;;25.87;5.10;;;10.30;99.90;;;;;;5083727;28;20453;-75
2023/12/10 14:20:30;;;;;;;21.10;4.10;;;10.20;99.90;;;;;;5078499;28;21527;-75